createdAt,value
2018-08-23T00:01:14.461Z,99978.96
2018-08-23T00:03:43.234Z,99972.45
2018-08-23T00:06:12.002Z,99975.98
2018-08-23T00:08:44.826Z,99974.62
2018-08-23T00:11:13.568Z,99975.98
2018-08-23T00:13:45.069Z,99982.78
2018-08-23T00:16:13.949Z,99978.42
2018-08-23T00:18:42.638Z,99970.52
2018-08-23T00:21:16.516Z,99971.57
2018-08-23T00:23:48.941Z,99972.40
2018-08-23T00:26:18.029Z,99969.64
2018-08-23T00:28:46.724Z,99969.10
2018-08-23T00:31:15.501Z,99966.39
2018-08-23T00:33:44.185Z,99971.54
2018-08-23T00:36:12.873Z,99967.70
2018-08-23T00:38:41.608Z,99966.06
2018-08-23T00:41:10.314Z,99960.34
2018-08-23T00:43:39.010Z,99965.75
2018-08-23T00:46:12.830Z,99967.11
2018-08-23T00:48:41.519Z,99961.68
2018-08-23T00:51:10.209Z,99963.28
2018-08-23T00:53:38.985Z,99960.30
2018-08-23T00:56:20.461Z,99958.13
2018-08-23T00:58:53.433Z,99956.22
2018-08-23T01:01:22.167Z,99957.02
2018-08-23T01:03:50.962Z,99954.84
2018-08-23T01:06:23.017Z,99951.55
2018-08-23T01:08:51.739Z,99952.66
2018-08-23T01:11:20.430Z,99956.17
2018-08-23T01:13:49.121Z,99951.01
2018-08-23T01:16:17.833Z,99949.65
2018-08-23T01:18:46.561Z,99948.29
2018-08-23T01:21:15.273Z,99946.94
2018-08-23T01:23:43.986Z,99947.99
2018-08-23T01:26:12.760Z,99949.63
2018-08-23T01:28:41.449Z,99949.38
2018-08-23T01:31:22.985Z,99949.63
2018-08-23T01:33:56.414Z,99955.36
2018-08-23T01:36:30.544Z,99953.45
2018-08-23T01:38:59.334Z,99959.45
2018-08-23T01:41:28.078Z,99950.98
2018-08-23T01:43:56.804Z,99959.16
2018-08-23T01:46:33.297Z,99957.77
2018-08-23T01:49:02.054Z,99949.63
2018-08-23T01:51:30.746Z,99949.89
2018-08-23T01:53:59.422Z,99948.72
2018-08-23T01:56:28.112Z,99955.50
2018-08-23T01:58:56.805Z,99958.97
2018-08-23T02:01:25.496Z,99956.55
2018-08-23T02:03:54.201Z,99954.63
2018-08-23T02:06:27.038Z,99949.47
2018-08-23T02:08:55.726Z,99954.58
2018-08-23T02:11:24.423Z,99953.42
2018-08-23T02:13:53.117Z,99955.32
2018-08-23T02:16:21.801Z,99958.53
2018-08-23T02:18:50.957Z,99956.91
2018-08-23T02:21:19.694Z,99962.33
2018-08-23T02:23:53.134Z,99963.68
2018-08-23T02:26:21.816Z,99960.47
2018-08-23T02:28:51.007Z,99964.85
2018-08-23T02:31:19.813Z,99962.64
2018-08-23T02:33:48.502Z,99967.52
2018-08-23T02:36:17.598Z,99963.95
2018-08-23T02:38:47.977Z,99963.37
2018-08-23T02:41:17.386Z,99960.60
2018-08-23T02:43:46.605Z,99964.35
2018-08-23T02:46:15.398Z,99969.41
2018-08-23T02:48:44.110Z,99962.62
2018-08-23T02:51:12.850Z,99970.21
2018-08-23T02:53:43.051Z,99966.92
2018-08-23T02:56:19.566Z,99970.71
2018-08-23T02:58:59.046Z,99973.95
2018-08-23T03:01:31.720Z,99968.39
2018-08-23T03:04:09.519Z,99972.66
2018-08-23T03:06:44.178Z,99973.48
2018-08-23T03:09:12.876Z,99973.69
2018-08-23T03:11:41.612Z,99976.89
2018-08-23T03:14:10.350Z,99972.61
2018-08-23T03:16:49.898Z,99970.37
2018-08-23T03:19:18.713Z,99979.31
2018-08-23T03:21:47.849Z,99987.42
2018-08-23T03:24:20.802Z,99989.29
2018-08-23T03:26:49.800Z,99991.52
2018-08-23T03:29:18.527Z,99991.52
2018-08-23T03:31:47.247Z,99987.23
2018-08-23T03:34:15.950Z,100000.25
2018-08-23T03:36:44.665Z,99995.11
2018-08-23T03:39:13.374Z,100002.43
2018-08-23T03:41:42.084Z,100001.72
2018-08-23T03:44:53.999Z,100005.81
2018-08-23T03:47:23.197Z,100006.45
2018-08-23T03:49:52.203Z,100010.55
2018-08-23T03:52:23.162Z,100006.55
2018-08-23T03:54:56.452Z,100012.31
2018-08-23T03:57:29.290Z,100009.38
2018-08-23T03:59:57.998Z,100008.59
2018-08-23T04:02:26.773Z,100009.23
2018-08-23T04:05:05.107Z,100005.63
2018-08-23T04:07:33.813Z,100012.97
2018-08-23T04:10:02.587Z,100008.20
2018-08-23T04:12:31.299Z,100016.12
2018-08-23T04:15:17.172Z,100015.59
2018-08-23T04:17:46.704Z,100012.84
2018-08-23T04:20:15.551Z,100008.11
2018-08-23T04:22:44.291Z,100015.44
2018-08-23T04:25:12.991Z,100009.47
2018-08-23T04:27:41.767Z,100008.73
2018-08-23T04:30:10.916Z,100010.80
2018-08-23T04:32:41.511Z,100017.30
2018-08-23T04:35:12.127Z,100010.88
2018-08-23T04:37:40.924Z,100014.12
2018-08-23T04:40:10.585Z,100017.88
2018-08-23T04:42:39.319Z,100021.30
2018-08-23T04:45:11.649Z,100028.42
2018-08-23T04:47:49.737Z,100031.09
2018-08-23T04:50:18.499Z,100025.82
2018-08-23T04:52:47.228Z,100031.00
2018-08-23T04:55:16.047Z,100034.00
2018-08-23T04:57:44.767Z,100026.75
2018-08-23T05:00:13.536Z,100025.18
2018-08-23T05:02:42.266Z,100029.16
2018-08-23T05:05:10.998Z,100035.03
2018-08-23T05:07:39.765Z,100037.28
2018-08-23T05:10:08.525Z,100034.06
2018-08-23T05:12:37.331Z,100034.08
2018-08-23T05:15:06.070Z,100033.31
2018-08-23T05:17:34.800Z,100038.45
2018-08-23T05:20:03.568Z,100036.53
2018-08-23T05:22:32.295Z,100044.25
2018-08-23T05:25:06.045Z,100036.19
2018-08-23T05:27:45.304Z,100030.22
2018-08-23T05:30:14.058Z,100032.53
2018-08-23T05:32:42.811Z,100035.45
2018-08-23T05:35:11.575Z,100040.48
2018-08-23T05:37:40.351Z,100036.74
2018-08-23T05:40:09.128Z,100041.13
2018-08-23T05:42:51.263Z,100045.53
2018-08-23T05:45:23.169Z,100041.41
2018-08-23T05:47:52.176Z,100040.91
2018-08-23T05:50:24.984Z,100035.73
2018-08-23T05:52:53.738Z,100034.08
2018-08-23T05:55:22.489Z,100023.75
2018-08-23T05:57:51.418Z,100028.38
2018-08-23T06:00:20.250Z,100019.05
2018-08-23T06:02:49.117Z,100025.68
2018-08-23T06:05:17.921Z,100025.75
2018-08-23T06:07:46.649Z,100021.84
2018-08-23T06:10:15.416Z,100024.89
2018-08-23T06:12:44.137Z,100028.41
2018-08-23T06:15:12.934Z,100032.44
2018-08-23T06:17:41.752Z,100024.64
2018-08-23T06:20:10.573Z,100024.29
2018-08-23T06:22:39.277Z,100028.86
2018-08-23T06:25:08.006Z,100031.13
2018-08-23T06:27:36.750Z,100029.42
2018-08-23T06:30:06.078Z,100029.41
2018-08-23T06:32:34.823Z,100021.23
2018-08-23T06:35:03.555Z,100026.17
2018-08-23T06:37:32.523Z,100024.73
2018-08-23T06:40:01.278Z,100022.13
2018-08-23T06:42:45.812Z,100027.84
2018-08-23T06:45:14.560Z,100023.07
2018-08-23T06:47:45.337Z,100028.42
2018-08-23T06:50:14.123Z,100030.34
2018-08-23T06:52:48.126Z,100024.73
2018-08-23T06:55:21.051Z,100034.45
2018-08-23T06:57:51.348Z,100028.90
2018-08-23T07:00:26.505Z,100032.91
2018-08-23T07:02:55.321Z,100030.47
2018-08-23T07:05:24.362Z,100035.08
2018-08-23T07:07:53.193Z,100032.74
2018-08-23T07:10:21.943Z,100026.02
2018-08-23T07:12:50.854Z,100031.62
2018-08-23T07:15:19.603Z,100029.45
2018-08-23T07:17:48.544Z,100026.02
2018-08-23T07:20:17.591Z,100025.98
2018-08-23T07:22:46.390Z,100028.22
2018-08-23T07:25:16.664Z,100025.91
2018-08-23T07:27:45.489Z,100022.69
2018-08-23T07:30:18.526Z,100023.79
2018-08-23T07:32:48.430Z,100016.62
2018-08-23T07:35:18.916Z,100019.59
2018-08-23T07:37:48.983Z,100018.02
2018-08-23T07:40:19.849Z,100015.81
2018-08-23T07:42:50.117Z,100011.41
2018-08-23T07:45:18.889Z,100014.48
2018-08-23T07:47:49.928Z,100012.50
2018-08-23T07:50:18.709Z,100006.41
2018-08-23T07:52:49.823Z,100008.30
2018-08-23T07:55:18.486Z,100006.28
2018-08-23T07:57:47.336Z,99995.84
2018-08-23T08:00:35.879Z,99998.52
2018-08-23T08:03:04.643Z,99998.91
2018-08-23T08:05:35.969Z,100001.64
2018-08-23T08:08:04.925Z,99998.16
2018-08-23T08:10:36.718Z,99992.09
2018-08-23T08:13:05.448Z,99987.25
2018-08-23T08:15:34.262Z,99993.02
2018-08-23T08:18:06.851Z,99985.48
2018-08-23T08:20:35.577Z,99994.41
2018-08-23T08:23:04.333Z,99992.14
2018-08-23T08:25:33.534Z,99993.72
2018-08-23T08:28:02.241Z,99988.19
2018-08-23T08:30:42.473Z,99983.79
2018-08-23T08:33:16.788Z,99984.38
2018-08-23T08:35:46.249Z,99980.31
2018-08-23T08:38:15.040Z,99982.88
2018-08-23T08:40:43.822Z,99982.69
2018-08-23T08:43:12.551Z,99980.95
2018-08-23T08:45:41.395Z,99977.48
2018-08-23T08:48:20.277Z,99982.90
2018-08-23T08:51:06.304Z,99976.66
2018-08-23T08:53:35.512Z,99972.72
2018-08-23T08:56:04.247Z,99973.23
2018-08-23T08:58:32.974Z,99977.31
2018-08-23T09:01:01.720Z,99959.59
2018-08-23T09:03:37.841Z,99962.59
2018-08-23T09:06:09.886Z,99960.35
2018-08-23T09:08:39.304Z,99956.19
2018-08-23T09:11:08.120Z,99957.66
2018-08-23T09:13:42.037Z,99954.47
2018-08-23T09:16:11.726Z,99951.92
2018-08-23T09:18:43.593Z,99946.66
2018-08-23T09:21:12.364Z,99949.95
2018-08-23T09:23:41.206Z,99948.58
2018-08-23T09:26:09.931Z,99944.78
2018-08-23T09:28:38.674Z,99939.67
2018-08-23T09:31:07.440Z,99941.70
2018-08-23T09:33:36.149Z,99931.53
2018-08-23T09:36:05.222Z,99932.62
2018-08-23T09:38:33.943Z,99938.13
2018-08-23T09:41:02.701Z,99935.67
2018-08-23T09:43:31.896Z,99946.20
2018-08-23T09:46:00.596Z,99930.73
2018-08-23T09:48:29.330Z,99928.89
2018-08-23T09:50:58.835Z,99931.13
2018-08-23T09:53:27.569Z,99930.98
2018-08-23T09:55:57.198Z,99925.21
2018-08-23T09:58:31.140Z,99923.80
2018-08-23T10:01:04.987Z,99920.62
2018-08-23T10:03:38.832Z,99920.10
2018-08-23T10:06:13.112Z,99924.31
2018-08-23T10:08:46.850Z,99914.12
2018-08-23T10:11:21.263Z,99914.05
2018-08-23T10:13:55.063Z,99917.91
2018-08-23T10:16:28.886Z,99905.72
2018-08-23T10:19:01.538Z,99907.81
2018-08-23T10:21:35.427Z,99901.73
2018-08-23T10:24:13.022Z,99901.03
2018-08-23T10:26:41.889Z,99911.98
2018-08-23T10:29:10.650Z,99900.02
2018-08-23T10:31:39.599Z,99895.86
2018-08-23T10:34:08.434Z,99900.26
2018-08-23T10:36:37.280Z,99890.11
2018-08-23T10:39:09.036Z,99889.04
2018-08-23T10:41:37.903Z,99890.31
2018-08-23T10:44:06.907Z,99893.17
2018-08-23T10:46:42.882Z,99883.43
2018-08-23T10:49:11.900Z,99877.63
2018-08-23T10:51:42.363Z,99882.45
2018-08-23T10:54:14.067Z,99869.84
2018-08-23T10:56:42.887Z,99877.91
2018-08-23T10:59:11.790Z,99858.18
2018-08-23T11:01:40.460Z,99863.87
2018-08-23T11:04:10.396Z,99865.19
2018-08-23T11:06:44.373Z,99860.41
2018-08-23T11:09:28.016Z,99859.22
2018-08-23T11:11:57.042Z,99853.81
2018-08-23T11:14:30.974Z,99846.39
2018-08-23T11:17:04.964Z,99846.61
2018-08-23T11:21:46.672Z,99841.94
2018-08-23T11:24:15.444Z,99834.27
2018-08-23T11:26:44.268Z,99828.27
2018-08-23T11:29:13.170Z,99827.09
2018-08-23T11:31:41.925Z,99822.61
2018-08-23T11:34:10.761Z,99817.95
2018-08-23T11:36:39.966Z,99823.66
2018-08-23T11:39:09.598Z,99821.00
2018-08-23T11:41:38.401Z,99808.25
2018-08-23T11:44:07.154Z,99802.62
2018-08-23T11:46:35.945Z,99801.38
2018-08-23T11:49:04.810Z,99798.16
2018-08-23T11:51:33.533Z,99798.23
2018-08-23T11:54:02.438Z,99792.66
2018-08-23T11:56:31.310Z,99785.73
2018-08-23T11:59:00.337Z,99778.50
2018-08-23T12:01:29.180Z,99772.61
2018-08-23T12:03:57.990Z,99781.13
2018-08-23T12:06:26.847Z,99772.66
2018-08-23T12:08:55.661Z,99775.45
2018-08-23T12:11:24.536Z,99765.06
2018-08-23T12:13:53.302Z,99761.62
2018-08-23T12:16:22.147Z,99751.88
2018-08-23T12:18:51.141Z,99754.08
2018-08-23T12:21:19.991Z,99742.86
2018-08-23T12:23:48.846Z,99739.78
2018-08-23T12:26:18.405Z,99742.09
2018-08-23T12:28:52.177Z,99742.52
2018-08-23T12:31:20.941Z,99732.91
2018-08-23T12:33:49.808Z,99741.03
2018-08-23T12:36:23.672Z,99730.28
2018-08-23T12:38:57.590Z,99730.80
2018-08-23T12:41:31.862Z,99721.68
2018-08-23T12:44:00.708Z,99714.14
2018-08-23T12:46:29.718Z,99713.27
2018-08-23T12:48:59.195Z,99709.20
2018-08-23T12:51:28.153Z,99712.09
2018-08-23T12:53:57.017Z,99708.22
2018-08-23T12:56:25.799Z,99710.47
2018-08-23T12:58:54.731Z,99701.63
2018-08-23T13:01:23.567Z,99703.09
2018-08-23T13:03:52.433Z,99706.94
2018-08-23T13:06:21.277Z,99699.55
2018-08-23T13:08:50.172Z,99701.69
2018-08-23T13:11:18.967Z,99698.27
2018-08-23T13:13:47.684Z,99699.23
2018-08-23T13:16:16.561Z,99695.23
2018-08-23T13:18:45.449Z,99685.95
2018-08-23T13:21:14.270Z,99684.15
2018-08-23T13:23:46.160Z,99680.02
2018-08-23T13:26:15.089Z,99682.38
2018-08-23T13:28:43.909Z,99682.98
2018-08-23T13:31:12.783Z,99678.74
2018-08-23T13:33:41.590Z,99668.66
2018-08-23T13:36:10.496Z,99663.23
2018-08-23T13:38:39.382Z,99660.83
2018-08-23T13:41:08.238Z,99657.76
2018-08-23T13:43:37.170Z,99649.47
2018-08-23T13:46:05.877Z,99649.88
2018-08-23T13:48:34.769Z,99651.06
2018-08-23T13:51:03.641Z,99650.17
2018-08-23T13:53:32.510Z,99653.81
2018-08-23T13:56:01.242Z,99657.39
2018-08-23T13:58:30.107Z,99653.53
2018-08-23T14:00:58.979Z,99645.67
2018-08-23T14:03:27.764Z,99651.49
2018-08-23T14:05:56.565Z,99641.25
2018-08-23T14:08:25.342Z,99640.23
2018-08-23T14:10:54.095Z,99647.34
2018-08-23T14:13:23.033Z,99637.56
2018-08-23T14:15:56.933Z,99639.45
2018-08-23T14:18:25.746Z,99638.86
2018-08-23T14:20:54.592Z,99633.70
2018-08-23T14:23:23.425Z,99640.41
2018-08-23T14:25:52.191Z,99636.37
2018-08-23T14:28:21.049Z,99637.55
2018-08-23T14:30:49.895Z,99637.63
2018-08-23T14:33:18.743Z,99649.83
2018-08-23T14:35:47.755Z,99642.44
2018-08-23T14:38:16.589Z,99634.17
2018-08-23T14:40:45.417Z,99632.41
2018-08-23T14:43:14.251Z,99634.97
2018-08-23T14:45:43.082Z,99638.55
2018-08-23T14:48:19.317Z,99628.16
2018-08-23T14:50:54.829Z,99624.74
2018-08-23T14:53:29.856Z,99617.52
2018-08-23T14:56:03.800Z,99627.66
2018-08-23T14:58:32.741Z,99628.88
2018-08-23T15:01:01.628Z,99629.08
2018-08-23T15:03:30.519Z,99630.50
2018-08-23T15:05:59.324Z,99631.34
2018-08-23T15:08:28.194Z,99635.17
2018-08-23T15:10:57.004Z,99631.75
2018-08-23T15:13:25.836Z,99633.70
2018-08-23T15:15:54.832Z,99631.89
2018-08-23T15:18:23.736Z,99634.62
2018-08-23T15:20:52.640Z,99630.31
2018-08-23T15:23:21.335Z,99625.80
2018-08-23T15:25:50.072Z,99623.44
2018-08-23T15:28:18.810Z,99620.45
2018-08-23T15:30:47.550Z,99626.31
2018-08-23T15:33:16.336Z,99621.72
2018-08-23T15:35:45.140Z,99620.55
2018-08-23T15:38:13.886Z,99617.90
2018-08-23T15:40:42.627Z,99615.09
2018-08-23T15:43:11.362Z,99615.52
2018-08-23T15:45:40.190Z,99615.27
2018-08-23T15:48:08.937Z,99614.07
2018-08-23T15:50:37.724Z,99615.09
2018-08-23T15:53:06.524Z,99614.29
2018-08-23T15:55:35.573Z,99613.09
2018-08-23T15:58:04.265Z,99618.44
2018-08-23T16:00:41.078Z,99615.16
2018-08-23T16:03:10.045Z,99613.11
2018-08-23T16:05:39.502Z,99613.83
2018-08-23T16:08:08.219Z,99609.82
2018-08-23T16:10:36.981Z,99615.52
2018-08-23T16:13:05.717Z,99607.47
2018-08-23T16:15:34.578Z,99616.50
2018-08-23T16:18:08.427Z,99614.56
2018-08-23T16:20:42.517Z,99611.02
2018-08-23T16:23:11.226Z,99605.72
2018-08-23T16:25:45.069Z,99612.28
2018-08-23T16:28:13.864Z,99609.78
2018-08-23T16:30:43.640Z,99605.97
2018-08-23T16:33:12.988Z,99607.84
2018-08-23T16:35:42.283Z,99617.44
2018-08-23T16:38:11.000Z,99612.02
2018-08-23T16:40:39.838Z,99612.56
2018-08-23T16:43:08.592Z,99612.23
2018-08-23T16:45:37.303Z,99608.42
2018-08-23T16:48:06.107Z,99613.78
2018-08-23T16:50:34.868Z,99615.52
2018-08-23T16:53:03.807Z,99631.99
2018-08-23T16:55:32.561Z,99627.27
2018-08-23T16:58:01.306Z,99627.58
2018-08-23T17:00:30.047Z,99630.81
2018-08-23T17:02:58.879Z,99634.79
2018-08-23T17:05:27.606Z,99636.44
2018-08-23T17:07:56.380Z,99635.29
2018-08-23T17:10:25.082Z,99641.00
2018-08-23T17:12:54.026Z,99641.02
2018-08-23T17:15:22.923Z,99643.72
2018-08-23T17:17:55.610Z,99640.72
2018-08-23T17:20:24.357Z,99646.12
2018-08-23T17:22:53.049Z,99658.17
2018-08-23T17:25:21.934Z,99651.78
2018-08-23T17:27:50.703Z,99653.53
2018-08-23T17:30:19.486Z,99653.20
2018-08-23T17:32:48.258Z,99660.27
2018-08-23T17:35:16.962Z,99659.66
2018-08-23T17:37:45.759Z,99666.98
2018-08-23T17:40:14.469Z,99669.95
2018-08-23T17:42:43.763Z,99670.08
2018-08-23T17:45:13.807Z,99673.84
2018-08-23T17:47:42.591Z,99677.62
2018-08-23T17:50:11.499Z,99684.53
2018-08-23T17:52:40.329Z,99680.78
2018-08-23T17:55:09.116Z,99689.75
2018-08-23T17:57:37.909Z,99688.81
2018-08-23T18:00:06.731Z,99691.14
2018-08-23T18:02:35.526Z,99699.16
2018-08-23T18:05:04.301Z,99711.05
2018-08-23T18:07:33.077Z,99707.45
2018-08-23T18:10:01.850Z,99705.80
2018-08-23T18:12:30.694Z,99714.59
2018-08-23T18:14:59.624Z,99712.21
2018-08-23T18:17:28.361Z,99718.98
2018-08-23T18:19:57.122Z,99717.08
2018-08-23T18:22:25.894Z,99720.30
2018-08-23T18:24:54.688Z,99721.86
2018-08-23T18:27:23.490Z,99725.97
2018-08-23T18:29:52.222Z,99728.11
2018-08-23T18:32:21.023Z,99723.70
2018-08-23T18:34:49.799Z,99730.39
2018-08-23T18:37:18.549Z,99737.41
2018-08-23T18:39:47.286Z,99736.42
2018-08-23T18:42:16.030Z,99730.15
2018-08-23T18:44:44.790Z,99726.63
2018-08-23T18:47:13.923Z,99741.61
2018-08-23T18:49:42.688Z,99744.03
2018-08-23T18:52:11.440Z,99741.80
2018-08-23T18:54:40.247Z,99742.75
2018-08-23T18:57:09.032Z,99742.57
2018-08-23T18:59:37.823Z,99741.56
2018-08-23T19:02:06.671Z,99738.41
2018-08-23T19:04:35.390Z,99739.51
2018-08-23T19:07:04.338Z,99739.81
2018-08-23T19:09:33.149Z,99742.99
2018-08-23T19:12:02.002Z,99742.48
2018-08-23T19:14:30.749Z,99742.74
2018-08-23T19:17:04.900Z,99749.64
2018-08-23T19:19:33.681Z,99752.36
2018-08-23T19:22:02.454Z,99759.69
2018-08-23T19:24:31.241Z,99757.09
2018-08-23T19:27:00.037Z,99758.51
2018-08-23T19:29:28.906Z,99754.34
2018-08-23T19:31:57.649Z,99754.16
2018-08-23T19:34:26.518Z,99766.03
2018-08-23T19:36:55.306Z,99768.36
2018-08-23T19:39:24.695Z,99765.23
2018-08-23T19:41:55.954Z,99768.02
2018-08-23T19:44:24.755Z,99769.44
2018-08-23T19:46:58.743Z,99771.61
2018-08-23T19:49:33.048Z,99768.42
2018-08-23T19:52:01.935Z,99772.59
2018-08-23T19:54:30.905Z,99769.70
2018-08-23T19:56:59.729Z,99773.58
2018-08-23T19:59:30.961Z,99770.65
2018-08-23T20:01:59.993Z,99767.13
2018-08-23T20:04:28.838Z,99770.48
2018-08-23T20:06:57.684Z,99768.11
2018-08-23T20:09:26.409Z,99770.06
2018-08-23T20:11:57.462Z,99763.84
2018-08-23T20:14:26.348Z,99761.75
2018-08-23T20:16:57.207Z,99763.45
2018-08-23T20:19:26.046Z,99764.59
2018-08-23T20:21:54.921Z,99770.05
2018-08-23T20:24:23.741Z,99761.09
2018-08-23T20:26:52.585Z,99762.97
2018-08-23T20:29:21.717Z,99761.91
2018-08-23T20:31:50.512Z,99764.89
2018-08-23T20:34:21.991Z,99759.48
2018-08-23T20:36:54.781Z,99767.44
2018-08-23T20:39:24.900Z,99769.64
2018-08-23T20:41:57.818Z,99769.12
2018-08-23T20:44:29.927Z,99773.99
2018-08-23T20:47:01.764Z,99772.44
2018-08-23T20:49:33.864Z,99764.23
2018-08-23T20:52:05.573Z,99768.83
2018-08-23T20:54:37.326Z,99770.78
2018-08-23T20:57:09.462Z,99771.40
2018-08-23T20:59:38.284Z,99771.40
2018-08-23T21:02:07.033Z,99779.28
2018-08-23T21:04:35.946Z,99774.13
2018-08-23T21:07:04.780Z,99776.00
2018-08-23T21:09:33.595Z,99781.23
2018-08-23T21:12:02.326Z,99780.16
2018-08-23T21:14:31.128Z,99782.68
2018-08-23T21:16:59.928Z,99787.34
2018-08-23T21:19:28.685Z,99782.73
2018-08-23T21:21:57.484Z,99785.48
2018-08-23T21:24:26.328Z,99784.91
2018-08-23T21:26:55.105Z,99785.75
2018-08-23T21:29:23.924Z,99791.77
2018-08-23T21:31:52.669Z,99788.20
2018-08-23T21:34:21.469Z,99785.69
2018-08-23T21:36:50.286Z,99785.05
2018-08-23T21:39:19.044Z,99787.23
2018-08-23T21:41:47.792Z,99787.84
2018-08-23T21:44:16.640Z,99789.78
2018-08-23T21:46:45.426Z,99785.20
2018-08-23T21:49:14.213Z,99781.39
2018-08-23T21:51:43.032Z,99778.15
2018-08-23T21:54:11.813Z,99778.44
2018-08-23T21:56:40.514Z,99780.34
2018-08-23T21:59:09.311Z,99781.48
2018-08-23T22:01:38.093Z,99785.25
2018-08-23T22:04:06.864Z,99779.30
2018-08-23T22:06:35.589Z,99778.77
2018-08-23T22:09:05.070Z,99777.70
2018-08-23T22:11:33.805Z,99770.61
2018-08-23T22:14:02.517Z,99777.15
2018-08-23T22:16:31.242Z,99777.48
2018-08-23T22:18:59.962Z,99774.77
2018-08-23T22:21:28.715Z,99775.84
2018-08-23T22:23:57.498Z,99768.27
2018-08-23T22:26:26.258Z,99769.37
2018-08-23T22:28:54.961Z,99768.86
2018-08-23T22:31:23.669Z,99772.70
2018-08-23T22:33:52.385Z,99764.55
2018-08-23T22:36:21.116Z,99767.81
2018-08-23T22:38:49.842Z,99766.47
2018-08-23T22:41:18.557Z,99759.70
2018-08-23T22:43:47.281Z,99767.06
2018-08-23T22:46:16.006Z,99762.17
2018-08-23T22:48:44.746Z,99762.73
2018-08-23T22:51:13.450Z,99759.77
2018-08-23T22:53:42.205Z,99757.34
2018-08-23T22:56:10.945Z,99753.82
2018-08-23T22:58:39.687Z,99753.80
2018-08-23T23:01:08.410Z,99749.20
2018-08-23T23:03:42.163Z,99747.84
2018-08-23T23:06:10.928Z,99755.73
2018-08-23T23:08:39.650Z,99753.84
2018-08-23T23:11:08.386Z,99757.66
2018-08-23T23:13:37.122Z,99757.10
2018-08-23T23:16:05.818Z,99759.84
2018-08-23T23:18:34.618Z,99757.39
2018-08-23T23:21:03.342Z,99757.13
2018-08-23T23:23:32.074Z,99761.20
2018-08-23T23:26:00.773Z,99756.29
2018-08-23T23:28:29.468Z,99756.58
2018-08-23T23:30:58.170Z,99751.97
2018-08-23T23:33:26.873Z,99751.70
2018-08-23T23:35:55.612Z,99747.90
2018-08-23T23:38:24.340Z,99744.62
2018-08-23T23:40:53.056Z,99745.98
2018-08-23T23:43:21.782Z,99749.78
2018-08-23T23:45:50.511Z,99735.66
2018-08-23T23:48:19.262Z,99740.27
2018-08-23T23:50:47.980Z,99737.58
2018-08-23T23:53:16.775Z,99737.30
2018-08-23T23:55:45.504Z,99738.62
2018-08-23T23:58:14.301Z,99737.28
